Pagrindinis puslapis
METAR-TAF:

METAR-TAF

Oro uostai :

Visbis, Gotlandas, Švedija

platuma: 57-40N, ilguma: 018-21E, Aukštis: 51 m

Dabartinis oras

Ataskaita buvo paskelbta 28 minutes, ne 15:50 UTC
Vėjas 22 kt iš Vakarų
Temperatūra 6°C
Drėgmė 75%
Slėgis 989 hPa
Matomumas 10 km arba daugiau

METAR: ESSV 071550Z AUTO 28022KT 9999 BKN029/// BKN059/// OVC078/// 06/02 Q0989

Laikas: 17:18 (16:18 UTC)

Prognozė

Ataskaita buvo paskelbta 1 valandą ir 48 minutes, ne 14:30 UTC
Prognozė galioja nuo 07 metu 15 UTC su 07 metu 17 UTC
Vėjas 22 kt iš Vakarų su gūsio iki 33 kt
Matomumas 10 km arba daugiau
Su prošvaistėmis ne aukštis 2000 ft

TAF: ESSV 071430Z 0715/0717 28022G33KT 9999 BKN020

Orai ataskaitas ir orų prognozės (METAR, TAF).

turimą stotys yra geltonos ir raudonos taškus žemėlapyje.

Perkelti pele per norėdami pamatyti stoties vardą.

Tada spustelėkite, norėdami matyti oro stebėjimo ir prognozės.

Norėdami pakeisti žemėlapį: spustelėkite ant žalios mygtukų su juodo kryžiaus žemyn,; žalią mygtuką su brūkšneliu, jei norite nutolinti; arba žalių rodyklių gretimoms žemėlapius.


METAR-TAF: